sensor_id;sensor_type;location;lat;lon;timestamp;temperature;humidity
42913;DHT22;50720;54.324;18.558;2023-03-01T00:00:54;1.40;99.90
42913;DHT22;50720;54.324;18.558;2023-03-01T00:03:34;1.40;99.90
42913;DHT22;50720;54.324;18.558;2023-03-01T00:06:11;1.40;99.90
42913;DHT22;50720;54.324;18.558;2023-03-01T00:08:44;1.40;99.90
42913;DHT22;50720;54.324;18.558;2023-03-01T00:11:17;1.40;99.90
42913;DHT22;50720;54.324;18.558;2023-03-01T00:13:54;1.40;99.90
42913;DHT22;50720;54.324;18.558;2023-03-01T00:16:36;1.40;99.90
42913;DHT22;50720;54.324;18.558;2023-03-01T00:19:14;1.50;99.90
42913;DHT22;50720;54.324;18.558;2023-03-01T00:21:48;1.50;99.90
42913;DHT22;50720;54.324;18.558;2023-03-01T00:24:30;1.50;99.90
42913;DHT22;50720;54.324;18.558;2023-03-01T00:27:11;1.60;99.90
42913;DHT22;50720;54.324;18.558;2023-03-01T00:29:49;1.60;99.90
42913;DHT22;50720;54.324;18.558;2023-03-01T00:32:19;1.60;99.90
42913;DHT22;50720;54.324;18.558;2023-03-01T00:34:53;1.60;99.90
42913;DHT22;50720;54.324;18.558;2023-03-01T00:37:28;1.60;99.90
42913;DHT22;50720;54.324;18.558;2023-03-01T00:40:02;1.70;99.90
42913;DHT22;50720;54.324;18.558;2023-03-01T00:42:36;1.60;99.90
42913;DHT22;50720;54.324;18.558;2023-03-01T00:45:12;1.60;99.90
42913;DHT22;50720;54.324;18.558;2023-03-01T00:47:42;1.60;99.90
42913;DHT22;50720;54.324;18.558;2023-03-01T00:50:15;1.60;99.90
42913;DHT22;50720;54.324;18.558;2023-03-01T00:52:52;1.60;99.90
42913;DHT22;50720;54.324;18.558;2023-03-01T00:55:29;1.60;99.90
42913;DHT22;50720;54.324;18.558;2023-03-01T00:58:02;1.60;99.90
42913;DHT22;50720;54.324;18.558;2023-03-01T01:00:35;1.60;99.90
42913;DHT22;50720;54.324;18.558;2023-03-01T01:03:09;1.60;99.90
42913;DHT22;50720;54.324;18.558;2023-03-01T01:05:41;1.60;99.90
42913;DHT22;50720;54.324;18.558;2023-03-01T01:08:15;1.60;99.90
42913;DHT22;50720;54.324;18.558;2023-03-01T01:10:49;1.60;99.90
42913;DHT22;50720;54.324;18.558;2023-03-01T01:13:24;1.60;99.90
42913;DHT22;50720;54.324;18.558;2023-03-01T01:15:55;1.60;99.90
42913;DHT22;50720;54.324;18.558;2023-03-01T01:18:35;1.60;99.90
42913;DHT22;50720;54.324;18.558;2023-03-01T01:21:10;1.60;99.90
42913;DHT22;50720;54.324;18.558;2023-03-01T01:23:43;1.60;99.90
42913;DHT22;50720;54.324;18.558;2023-03-01T01:26:22;1.60;99.90
42913;DHT22;50720;54.324;18.558;2023-03-01T01:28:59;1.60;99.90
42913;DHT22;50720;54.324;18.558;2023-03-01T01:31:36;1.60;99.90
42913;DHT22;50720;54.324;18.558;2023-03-01T01:34:12;1.60;99.90
42913;DHT22;50720;54.324;18.558;2023-03-01T01:36:48;1.50;99.90
42913;DHT22;50720;54.324;18.558;2023-03-01T01:39:26;1.60;99.90
42913;DHT22;50720;54.324;18.558;2023-03-01T01:42:15;1.60;99.90
42913;DHT22;50720;54.324;18.558;2023-03-01T01:44:47;1.50;99.90
42913;DHT22;50720;54.324;18.558;2023-03-01T01:47:20;1.60;99.90
42913;DHT22;50720;54.324;18.558;2023-03-01T01:49:56;1.60;99.90
42913;DHT22;50720;54.324;18.558;2023-03-01T01:52:31;1.60;99.90
42913;DHT22;50720;54.324;18.558;2023-03-01T01:55:10;1.50;99.90
42913;DHT22;50720;54.324;18.558;2023-03-01T01:57:47;1.50;99.90
42913;DHT22;50720;54.324;18.558;2023-03-01T02:00:23;1.50;99.90
42913;DHT22;50720;54.324;18.558;2023-03-01T02:02:57;1.50;99.90
42913;DHT22;50720;54.324;18.558;2023-03-01T02:05:38;1.50;99.90
42913;DHT22;50720;54.324;18.558;2023-03-01T02:08:14;1.50;99.90
42913;DHT22;50720;54.324;18.558;2023-03-01T02:10:55;1.50;99.90
42913;DHT22;50720;54.324;18.558;2023-03-01T02:13:34;1.50;99.90
42913;DHT22;50720;54.324;18.558;2023-03-01T02:16:15;1.40;99.90
42913;DHT22;50720;54.324;18.558;2023-03-01T02:18:56;1.40;99.90
42913;DHT22;50720;54.324;18.558;2023-03-01T02:21:38;1.30;99.90
42913;DHT22;50720;54.324;18.558;2023-03-01T02:24:21;1.30;99.90
42913;DHT22;50720;54.324;18.558;2023-03-01T02:26:57;1.30;99.90
42913;DHT22;50720;54.324;18.558;2023-03-01T02:29:53;1.30;99.90
42913;DHT22;50720;54.324;18.558;2023-03-01T02:32:24;1.20;99.90
42913;DHT22;50720;54.324;18.558;2023-03-01T02:34:57;1.20;99.90
42913;DHT22;50720;54.324;18.558;2023-03-01T02:37:29;1.20;99.90
42913;DHT22;50720;54.324;18.558;2023-03-01T02:40:12;1.20;99.90
42913;DHT22;50720;54.324;18.558;2023-03-01T02:42:53;1.20;99.90
42913;DHT22;50720;54.324;18.558;2023-03-01T02:45:33;1.20;99.90
42913;DHT22;50720;54.324;18.558;2023-03-01T02:48:07;1.20;99.90
42913;DHT22;50720;54.324;18.558;2023-03-01T02:50:59;1.20;99.90
42913;DHT22;50720;54.324;18.558;2023-03-01T02:53:41;1.20;99.90
42913;DHT22;50720;54.324;18.558;2023-03-01T02:56:26;1.20;99.90
42913;DHT22;50720;54.324;18.558;2023-03-01T02:59:04;1.10;99.90
42913;DHT22;50720;54.324;18.558;2023-03-01T03:01:45;1.20;99.90
42913;DHT22;50720;54.324;18.558;2023-03-01T03:04:22;1.20;99.90
42913;DHT22;50720;54.324;18.558;2023-03-01T03:06:55;1.20;99.90
42913;DHT22;50720;54.324;18.558;2023-03-01T03:09:32;1.20;99.90
42913;DHT22;50720;54.324;18.558;2023-03-01T03:12:09;1.20;99.90
42913;DHT22;50720;54.324;18.558;2023-03-01T03:14:41;1.20;99.90
42913;DHT22;50720;54.324;18.558;2023-03-01T03:17:16;1.10;99.90
42913;DHT22;50720;54.324;18.558;2023-03-01T03:19:53;1.20;99.90
42913;DHT22;50720;54.324;18.558;2023-03-01T03:22:38;1.10;99.90
42913;DHT22;50720;54.324;18.558;2023-03-01T03:25:12;1.10;99.90
42913;DHT22;50720;54.324;18.558;2023-03-01T03:27:56;1.20;99.90
42913;DHT22;50720;54.324;18.558;2023-03-01T03:30:36;1.10;99.90
42913;DHT22;50720;54.324;18.558;2023-03-01T03:33:16;1.10;99.90
42913;DHT22;50720;54.324;18.558;2023-03-01T03:35:52;1.10;99.90
42913;DHT22;50720;54.324;18.558;2023-03-01T03:38:28;1.10;99.90
42913;DHT22;50720;54.324;18.558;2023-03-01T03:41:03;1.10;99.90
42913;DHT22;50720;54.324;18.558;2023-03-01T03:43:39;1.10;99.90
42913;DHT22;50720;54.324;18.558;2023-03-01T03:46:12;1.20;99.90
42913;DHT22;50720;54.324;18.558;2023-03-01T03:48:45;1.20;99.90
42913;DHT22;50720;54.324;18.558;2023-03-01T03:51:35;1.10;99.90
42913;DHT22;50720;54.324;18.558;2023-03-01T03:54:10;1.20;99.90
42913;DHT22;50720;54.324;18.558;2023-03-01T03:56:44;1.10;99.90
42913;DHT22;50720;54.324;18.558;2023-03-01T03:59:20;1.10;99.90
42913;DHT22;50720;54.324;18.558;2023-03-01T04:01:54;1.10;99.90
42913;DHT22;50720;54.324;18.558;2023-03-01T04:04:32;1.10;99.90
42913;DHT22;50720;54.324;18.558;2023-03-01T04:07:12;1.10;99.90
42913;DHT22;50720;54.324;18.558;2023-03-01T04:09:55;1.10;99.90
42913;DHT22;50720;54.324;18.558;2023-03-01T04:12:29;1.10;99.90
42913;DHT22;50720;54.324;18.558;2023-03-01T04:15:06;1.10;99.90
42913;DHT22;50720;54.324;18.558;2023-03-01T04:17:51;1.10;99.90
42913;DHT22;50720;54.324;18.558;2023-03-01T04:20:31;1.10;99.90
42913;DHT22;50720;54.324;18.558;2023-03-01T04:23:11;1.10;99.90
42913;DHT22;50720;54.324;18.558;2023-03-01T04:25:52;1.10;99.90
42913;DHT22;50720;54.324;18.558;2023-03-01T04:28:31;1.10;99.90
42913;DHT22;50720;54.324;18.558;2023-03-01T04:31:07;1.10;99.90
42913;DHT22;50720;54.324;18.558;2023-03-01T04:33:50;1.10;99.90
42913;DHT22;50720;54.324;18.558;2023-03-01T04:36:28;1.10;99.90
42913;DHT22;50720;54.324;18.558;2023-03-01T04:39:02;1.10;99.90
42913;DHT22;50720;54.324;18.558;2023-03-01T04:41:58;1.10;99.90
42913;DHT22;50720;54.324;18.558;2023-03-01T04:44:33;1.10;99.90
42913;DHT22;50720;54.324;18.558;2023-03-01T04:47:05;1.10;99.90
42913;DHT22;50720;54.324;18.558;2023-03-01T04:49:43;1.10;99.90
42913;DHT22;50720;54.324;18.558;2023-03-01T04:52:20;1.00;99.90
42913;DHT22;50720;54.324;18.558;2023-03-01T04:54:54;1.10;99.90
42913;DHT22;50720;54.324;18.558;2023-03-01T04:57:29;1.10;99.90
42913;DHT22;50720;54.324;18.558;2023-03-01T05:00:05;1.00;99.90
42913;DHT22;50720;54.324;18.558;2023-03-01T05:02:57;1.00;99.90
42913;DHT22;50720;54.324;18.558;2023-03-01T05:05:33;1.00;99.90
42913;DHT22;50720;54.324;18.558;2023-03-01T05:08:10;1.00;99.90
42913;DHT22;50720;54.324;18.558;2023-03-01T05:10:48;1.00;99.90
42913;DHT22;50720;54.324;18.558;2023-03-01T05:13:26;1.00;99.90
42913;DHT22;50720;54.324;18.558;2023-03-01T05:15:58;1.00;99.90
42913;DHT22;50720;54.324;18.558;2023-03-01T05:18:29;1.00;99.90
42913;DHT22;50720;54.324;18.558;2023-03-01T05:21:03;1.00;99.90
42913;DHT22;50720;54.324;18.558;2023-03-01T05:23:35;0.90;99.90
42913;DHT22;50720;54.324;18.558;2023-03-01T05:26:06;1.00;99.90
42913;DHT22;50720;54.324;18.558;2023-03-01T05:28:54;0.90;99.90
42913;DHT22;50720;54.324;18.558;2023-03-01T05:31:27;0.90;99.90
42913;DHT22;50720;54.324;18.558;2023-03-01T05:33:59;0.90;99.90
42913;DHT22;50720;54.324;18.558;2023-03-01T05:36:29;0.90;99.90
42913;DHT22;50720;54.324;18.558;2023-03-01T05:39:01;0.90;99.90
42913;DHT22;50720;54.324;18.558;2023-03-01T05:41:31;0.90;99.90
42913;DHT22;50720;54.324;18.558;2023-03-01T05:44:01;0.90;99.90
42913;DHT22;50720;54.324;18.558;2023-03-01T05:46:32;0.90;99.90
42913;DHT22;50720;54.324;18.558;2023-03-01T05:49:02;0.90;99.90
42913;DHT22;50720;54.324;18.558;2023-03-01T05:51:31;0.90;99.90
42913;DHT22;50720;54.324;18.558;2023-03-01T05:54:03;0.90;99.90
42913;DHT22;50720;54.324;18.558;2023-03-01T05:56:33;0.90;99.90
42913;DHT22;50720;54.324;18.558;2023-03-01T05:59:04;0.90;99.90
42913;DHT22;50720;54.324;18.558;2023-03-01T06:01:35;0.90;99.90
42913;DHT22;50720;54.324;18.558;2023-03-01T06:04:06;0.90;99.90
42913;DHT22;50720;54.324;18.558;2023-03-01T06:06:36;0.90;99.90
42913;DHT22;50720;54.324;18.558;2023-03-01T06:09:09;1.00;99.90
42913;DHT22;50720;54.324;18.558;2023-03-01T06:11:38;1.00;99.90
42913;DHT22;50720;54.324;18.558;2023-03-01T06:14:08;1.00;99.90
42913;DHT22;50720;54.324;18.558;2023-03-01T06:16:38;1.00;99.90
42913;DHT22;50720;54.324;18.558;2023-03-01T06:19:08;1.00;99.90
42913;DHT22;50720;54.324;18.558;2023-03-01T06:21:37;1.00;99.90
42913;DHT22;50720;54.324;18.558;2023-03-01T06:24:09;1.10;99.90
42913;DHT22;50720;54.324;18.558;2023-03-01T06:26:38;1.00;99.90
42913;DHT22;50720;54.324;18.558;2023-03-01T06:29:08;1.00;99.90
42913;DHT22;50720;54.324;18.558;2023-03-01T06:31:38;1.10;99.90
42913;DHT22;50720;54.324;18.558;2023-03-01T06:34:07;1.10;99.90
42913;DHT22;50720;54.324;18.558;2023-03-01T06:36:41;1.10;99.90
42913;DHT22;50720;54.324;18.558;2023-03-01T06:39:12;1.10;99.90
42913;DHT22;50720;54.324;18.558;2023-03-01T06:41:42;1.10;99.90
42913;DHT22;50720;54.324;18.558;2023-03-01T06:44:12;1.10;99.90
42913;DHT22;50720;54.324;18.558;2023-03-01T06:46:41;1.10;99.90
42913;DHT22;50720;54.324;18.558;2023-03-01T06:49:11;1.20;99.90
42913;DHT22;50720;54.324;18.558;2023-03-01T06:51:41;1.20;99.90
42913;DHT22;50720;54.324;18.558;2023-03-01T06:54:12;1.20;99.90
42913;DHT22;50720;54.324;18.558;2023-03-01T06:56:42;1.30;99.90
42913;DHT22;50720;54.324;18.558;2023-03-01T06:59:11;1.30;99.90
42913;DHT22;50720;54.324;18.558;2023-03-01T07:01:40;1.30;99.90
42913;DHT22;50720;54.324;18.558;2023-03-01T07:04:12;1.30;99.90
42913;DHT22;50720;54.324;18.558;2023-03-01T07:06:42;1.20;99.90
42913;DHT22;50720;54.324;18.558;2023-03-01T07:09:13;1.10;99.90
42913;DHT22;50720;54.324;18.558;2023-03-01T07:11:47;1.10;99.90
42913;DHT22;50720;54.324;18.558;2023-03-01T07:14:17;1.10;99.90
42913;DHT22;50720;54.324;18.558;2023-03-01T07:16:48;1.20;99.90
42913;DHT22;50720;54.324;18.558;2023-03-01T07:19:20;1.20;99.90
42913;DHT22;50720;54.324;18.558;2023-03-01T07:21:50;1.20;99.90
42913;DHT22;50720;54.324;18.558;2023-03-01T07:24:21;1.30;99.90
42913;DHT22;50720;54.324;18.558;2023-03-01T07:26:51;1.30;99.90
42913;DHT22;50720;54.324;18.558;2023-03-01T07:29:23;1.30;99.90
42913;DHT22;50720;54.324;18.558;2023-03-01T07:31:52;1.30;99.90
42913;DHT22;50720;54.324;18.558;2023-03-01T07:34:22;1.40;99.90
42913;DHT22;50720;54.324;18.558;2023-03-01T07:36:52;1.40;99.90
42913;DHT22;50720;54.324;18.558;2023-03-01T07:39:24;1.50;99.90
42913;DHT22;50720;54.324;18.558;2023-03-01T07:41:53;1.50;99.90
42913;DHT22;50720;54.324;18.558;2023-03-01T07:44:24;1.50;99.90
42913;DHT22;50720;54.324;18.558;2023-03-01T07:46:53;1.50;99.90
42913;DHT22;50720;54.324;18.558;2023-03-01T07:49:24;1.60;99.90
42913;DHT22;50720;54.324;18.558;2023-03-01T07:51:54;1.60;99.90
42913;DHT22;50720;54.324;18.558;2023-03-01T07:54:25;1.70;99.90
42913;DHT22;50720;54.324;18.558;2023-03-01T07:56:56;1.70;99.90
42913;DHT22;50720;54.324;18.558;2023-03-01T07:59:25;1.80;99.90
42913;DHT22;50720;54.324;18.558;2023-03-01T08:01:57;1.80;99.90
42913;DHT22;50720;54.324;18.558;2023-03-01T08:04:26;1.80;99.90
42913;DHT22;50720;54.324;18.558;2023-03-01T08:06:56;1.90;99.90
42913;DHT22;50720;54.324;18.558;2023-03-01T08:09:27;1.90;99.90
42913;DHT22;50720;54.324;18.558;2023-03-01T08:11:57;1.90;99.90
42913;DHT22;50720;54.324;18.558;2023-03-01T08:14:28;2.00;99.90
42913;DHT22;50720;54.324;18.558;2023-03-01T08:16:58;2.10;99.90
42913;DHT22;50720;54.324;18.558;2023-03-01T08:19:28;2.20;99.90
42913;DHT22;50720;54.324;18.558;2023-03-01T08:21:58;2.30;99.90
42913;DHT22;50720;54.324;18.558;2023-03-01T08:24:29;2.30;99.90
42913;DHT22;50720;54.324;18.558;2023-03-01T08:26:58;2.40;99.90
42913;DHT22;50720;54.324;18.558;2023-03-01T08:29:31;2.50;99.90
42913;DHT22;50720;54.324;18.558;2023-03-01T08:32:00;2.50;99.90
42913;DHT22;50720;54.324;18.558;2023-03-01T08:34:30;2.50;99.90
42913;DHT22;50720;54.324;18.558;2023-03-01T08:37:00;2.60;99.90
42913;DHT22;50720;54.324;18.558;2023-03-01T08:39:31;2.70;99.90
42913;DHT22;50720;54.324;18.558;2023-03-01T08:42:00;2.80;99.90
42913;DHT22;50720;54.324;18.558;2023-03-01T08:44:30;2.80;99.90
42913;DHT22;50720;54.324;18.558;2023-03-01T08:46:59;2.80;99.90
42913;DHT22;50720;54.324;18.558;2023-03-01T08:49:30;2.70;99.90
42913;DHT22;50720;54.324;18.558;2023-03-01T08:52:01;2.80;99.90
42913;DHT22;50720;54.324;18.558;2023-03-01T08:54:32;2.80;99.90
42913;DHT22;50720;54.324;18.558;2023-03-01T08:57:02;2.80;99.90
42913;DHT22;50720;54.324;18.558;2023-03-01T08:59:32;2.90;99.90
42913;DHT22;50720;54.324;18.558;2023-03-01T09:02:04;3.00;99.90
42913;DHT22;50720;54.324;18.558;2023-03-01T09:04:34;3.00;99.90
42913;DHT22;50720;54.324;18.558;2023-03-01T09:07:04;3.10;99.90
42913;DHT22;50720;54.324;18.558;2023-03-01T09:09:35;3.10;99.90
42913;DHT22;50720;54.324;18.558;2023-03-01T09:12:05;3.30;99.90
42913;DHT22;50720;54.324;18.558;2023-03-01T09:14:35;3.40;99.90
42913;DHT22;50720;54.324;18.558;2023-03-01T09:17:06;3.40;99.90
42913;DHT22;50720;54.324;18.558;2023-03-01T09:19:36;3.50;99.90
42913;DHT22;50720;54.324;18.558;2023-03-01T09:22:06;3.70;99.90
42913;DHT22;50720;54.324;18.558;2023-03-01T09:24:37;3.80;99.90
42913;DHT22;50720;54.324;18.558;2023-03-01T09:27:07;3.90;99.90
42913;DHT22;50720;54.324;18.558;2023-03-01T09:29:37;4.00;99.90
42913;DHT22;50720;54.324;18.558;2023-03-01T09:32:07;4.10;99.90
42913;DHT22;50720;54.324;18.558;2023-03-01T09:34:38;4.20;99.90
42913;DHT22;50720;54.324;18.558;2023-03-01T09:37:21;4.20;99.90
42913;DHT22;50720;54.324;18.558;2023-03-01T09:39:53;4.20;99.90
42913;DHT22;50720;54.324;18.558;2023-03-01T09:42:22;4.20;99.90
42913;DHT22;50720;54.324;18.558;2023-03-01T09:44:55;4.20;99.90
42913;DHT22;50720;54.324;18.558;2023-03-01T09:47:29;4.20;99.90
42913;DHT22;50720;54.324;18.558;2023-03-01T09:50:04;4.10;99.90
42913;DHT22;50720;54.324;18.558;2023-03-01T09:52:40;4.10;99.90
42913;DHT22;50720;54.324;18.558;2023-03-01T09:55:14;4.30;99.90
42913;DHT22;50720;54.324;18.558;2023-03-01T09:57:48;4.40;99.90
42913;DHT22;50720;54.324;18.558;2023-03-01T10:00:30;4.50;99.90
42913;DHT22;50720;54.324;18.558;2023-03-01T10:03:12;4.40;99.90
42913;DHT22;50720;54.324;18.558;2023-03-01T10:05:52;4.60;99.90
42913;DHT22;50720;54.324;18.558;2023-03-01T10:08:29;4.70;99.90
42913;DHT22;50720;54.324;18.558;2023-03-01T10:11:04;4.70;99.90
42913;DHT22;50720;54.324;18.558;2023-03-01T10:13:43;4.80;99.90
42913;DHT22;50720;54.324;18.558;2023-03-01T10:16:21;4.90;99.90
42913;DHT22;50720;54.324;18.558;2023-03-01T10:18:54;4.80;99.90
42913;DHT22;50720;54.324;18.558;2023-03-01T10:21:26;4.90;99.90
42913;DHT22;50720;54.324;18.558;2023-03-01T10:24:02;5.00;99.90
42913;DHT22;50720;54.324;18.558;2023-03-01T10:26:46;5.10;99.90
42913;DHT22;50720;54.324;18.558;2023-03-01T10:29:16;5.20;99.90
42913;DHT22;50720;54.324;18.558;2023-03-01T10:31:49;5.20;99.90
42913;DHT22;50720;54.324;18.558;2023-03-01T10:34:20;5.30;99.90
42913;DHT22;50720;54.324;18.558;2023-03-01T10:36:53;5.40;99.90
42913;DHT22;50720;54.324;18.558;2023-03-01T10:39:26;5.40;99.90
42913;DHT22;50720;54.324;18.558;2023-03-01T10:42:00;5.40;99.90
42913;DHT22;50720;54.324;18.558;2023-03-01T10:44:38;5.50;99.90
42913;DHT22;50720;54.324;18.558;2023-03-01T10:47:15;5.60;99.90
42913;DHT22;50720;54.324;18.558;2023-03-01T10:49:53;5.70;99.90
42913;DHT22;50720;54.324;18.558;2023-03-01T10:52:25;5.80;99.90
42913;DHT22;50720;54.324;18.558;2023-03-01T10:54:57;6.00;99.90
42913;DHT22;50720;54.324;18.558;2023-03-01T10:57:43;6.10;99.90
42913;DHT22;50720;54.324;18.558;2023-03-01T11:00:21;6.10;99.90
42913;DHT22;50720;54.324;18.558;2023-03-01T11:03:12;6.20;99.90
42913;DHT22;50720;54.324;18.558;2023-03-01T11:05:59;6.60;99.90
42913;DHT22;50720;54.324;18.558;2023-03-01T11:08:31;7.20;99.90
42913;DHT22;50720;54.324;18.558;2023-03-01T11:11:17;8.10;99.90
42913;DHT22;50720;54.324;18.558;2023-03-01T11:13:55;8.80;99.90
42913;DHT22;50720;54.324;18.558;2023-03-01T11:16:27;9.50;99.90
42913;DHT22;50720;54.324;18.558;2023-03-01T11:19:00;10.40;99.90
42913;DHT22;50720;54.324;18.558;2023-03-01T11:21:32;11.40;99.90
42913;DHT22;50720;54.324;18.558;2023-03-01T11:24:05;11.30;99.90
42913;DHT22;50720;54.324;18.558;2023-03-01T11:26:38;11.20;99.90
42913;DHT22;50720;54.324;18.558;2023-03-01T11:29:17;11.10;99.90
42913;DHT22;50720;54.324;18.558;2023-03-01T11:31:50;11.30;99.90
42913;DHT22;50720;54.324;18.558;2023-03-01T11:34:36;11.50;99.90
42913;DHT22;50720;54.324;18.558;2023-03-01T11:37:15;11.70;99.90
42913;DHT22;50720;54.324;18.558;2023-03-01T11:39:54;11.80;99.90
42913;DHT22;50720;54.324;18.558;2023-03-01T11:42:33;11.90;99.90
42913;DHT22;50720;54.324;18.558;2023-03-01T11:45:10;11.20;99.90
42913;DHT22;50720;54.324;18.558;2023-03-01T11:47:59;10.80;99.90
42913;DHT22;50720;54.324;18.558;2023-03-01T11:50:38;11.20;99.90
42913;DHT22;50720;54.324;18.558;2023-03-01T11:53:24;11.40;99.90
42913;DHT22;50720;54.324;18.558;2023-03-01T11:56:05;12.10;99.90
42913;DHT22;50720;54.324;18.558;2023-03-01T11:58:51;12.70;99.90
42913;DHT22;50720;54.324;18.558;2023-03-01T12:01:46;12.60;99.90
42913;DHT22;50720;54.324;18.558;2023-03-01T12:04:44;12.50;99.90
42913;DHT22;50720;54.324;18.558;2023-03-01T12:07:25;12.70;99.90
42913;DHT22;50720;54.324;18.558;2023-03-01T12:10:15;11.50;99.90
42913;DHT22;50720;54.324;18.558;2023-03-01T12:13:05;11.00;99.90
42913;DHT22;50720;54.324;18.558;2023-03-01T12:15:51;11.10;99.90
42913;DHT22;50720;54.324;18.558;2023-03-01T12:18:54;11.10;99.90
42913;DHT22;50720;54.324;18.558;2023-03-01T12:21:39;11.30;99.90
42913;DHT22;50720;54.324;18.558;2023-03-01T12:27:34;10.60;99.90
42913;DHT22;50720;54.324;18.558;2023-03-01T12:30:19;11.10;99.90
42913;DHT22;50720;54.324;18.558;2023-03-01T12:33:00;11.10;99.90
42913;DHT22;50720;54.324;18.558;2023-03-01T12:38:41;10.80;99.90
42913;DHT22;50720;54.324;18.558;2023-03-01T12:41:38;10.70;99.90
42913;DHT22;50720;54.324;18.558;2023-03-01T12:44:38;11.30;99.90
42913;DHT22;50720;54.324;18.558;2023-03-01T12:47:23;11.80;99.90
42913;DHT22;50720;54.324;18.558;2023-03-01T12:49:57;11.70;99.90
42913;DHT22;50720;54.324;18.558;2023-03-01T12:52:35;11.80;99.90
42913;DHT22;50720;54.324;18.558;2023-03-01T12:55:18;11.60;99.90
42913;DHT22;50720;54.324;18.558;2023-03-01T12:58:07;11.70;99.90
42913;DHT22;50720;54.324;18.558;2023-03-01T13:00:45;12.00;99.90
42913;DHT22;50720;54.324;18.558;2023-03-01T13:07:53;11.90;99.90
42913;DHT22;50720;54.324;18.558;2023-03-01T13:10:31;12.00;99.90
42913;DHT22;50720;54.324;18.558;2023-03-01T13:13:13;11.70;99.90
42913;DHT22;50720;54.324;18.558;2023-03-01T13:15:43;11.50;99.90
42913;DHT22;50720;54.324;18.558;2023-03-01T13:18:31;11.50;99.90
42913;DHT22;50720;54.324;18.558;2023-03-01T13:24:26;10.90;99.90
42913;DHT22;50720;54.324;18.558;2023-03-01T13:27:22;11.30;99.90
42913;DHT22;50720;54.324;18.558;2023-03-01T13:29:58;11.90;99.90
42913;DHT22;50720;54.324;18.558;2023-03-01T13:32:35;12.40;99.90
42913;DHT22;50720;54.324;18.558;2023-03-01T13:35:43;12.60;99.90
42913;DHT22;50720;54.324;18.558;2023-03-01T13:38:39;13.20;99.90
42913;DHT22;50720;54.324;18.558;2023-03-01T13:41:14;13.90;99.90
42913;DHT22;50720;54.324;18.558;2023-03-01T13:43:46;13.80;99.90
42913;DHT22;50720;54.324;18.558;2023-03-01T13:46:19;13.80;99.90
42913;DHT22;50720;54.324;18.558;2023-03-01T13:48:52;13.60;99.90
42913;DHT22;50720;54.324;18.558;2023-03-01T13:51:25;13.50;99.90
42913;DHT22;50720;54.324;18.558;2023-03-01T13:53:56;12.90;99.90
42913;DHT22;50720;54.324;18.558;2023-03-01T13:56:28;11.90;99.90
42913;DHT22;50720;54.324;18.558;2023-03-01T13:59:06;11.90;99.90
42913;DHT22;50720;54.324;18.558;2023-03-01T14:01:42;11.70;99.90
42913;DHT22;50720;54.324;18.558;2023-03-01T14:04:21;11.30;99.90
42913;DHT22;50720;54.324;18.558;2023-03-01T14:06:50;11.70;99.90
42913;DHT22;50720;54.324;18.558;2023-03-01T14:09:22;12.10;99.90
42913;DHT22;50720;54.324;18.558;2023-03-01T14:12:19;11.80;99.90
42913;DHT22;50720;54.324;18.558;2023-03-01T14:14:56;11.20;99.90
42913;DHT22;50720;54.324;18.558;2023-03-01T14:17:43;10.40;99.90
42913;DHT22;50720;54.324;18.558;2023-03-01T14:20:19;10.30;99.90
42913;DHT22;50720;54.324;18.558;2023-03-01T14:22:50;10.30;99.90
42913;DHT22;50720;54.324;18.558;2023-03-01T14:25:24;9.80;99.90
42913;DHT22;50720;54.324;18.558;2023-03-01T14:27:58;9.70;99.90
42913;DHT22;50720;54.324;18.558;2023-03-01T14:30:36;9.80;99.90
42913;DHT22;50720;54.324;18.558;2023-03-01T14:33:20;9.70;99.90
42913;DHT22;50720;54.324;18.558;2023-03-01T14:35:55;9.60;99.90
42913;DHT22;50720;54.324;18.558;2023-03-01T14:38:31;9.70;99.90
42913;DHT22;50720;54.324;18.558;2023-03-01T14:41:05;10.00;99.90
42913;DHT22;50720;54.324;18.558;2023-03-01T14:43:36;9.70;99.90
42913;DHT22;50720;54.324;18.558;2023-03-01T14:46:18;9.30;99.90
42913;DHT22;50720;54.324;18.558;2023-03-01T14:48:50;9.10;99.90
42913;DHT22;50720;54.324;18.558;2023-03-01T14:51:20;9.10;99.90
42913;DHT22;50720;54.324;18.558;2023-03-01T14:53:50;9.20;99.90
42913;DHT22;50720;54.324;18.558;2023-03-01T14:56:20;9.60;99.90
42913;DHT22;50720;54.324;18.558;2023-03-01T14:58:52;9.70;99.90
42913;DHT22;50720;54.324;18.558;2023-03-01T15:01:24;9.40;99.90
42913;DHT22;50720;54.324;18.558;2023-03-01T15:03:54;9.30;99.90
42913;DHT22;50720;54.324;18.558;2023-03-01T15:06:23;9.40;99.90
42913;DHT22;50720;54.324;18.558;2023-03-01T15:08:54;9.30;99.90
42913;DHT22;50720;54.324;18.558;2023-03-01T15:11:28;8.80;99.90
42913;DHT22;50720;54.324;18.558;2023-03-01T15:13:58;8.40;99.90
42913;DHT22;50720;54.324;18.558;2023-03-01T15:16:31;7.90;99.90
42913;DHT22;50720;54.324;18.558;2023-03-01T15:19:03;7.40;99.90
42913;DHT22;50720;54.324;18.558;2023-03-01T15:21:34;7.20;99.90
42913;DHT22;50720;54.324;18.558;2023-03-01T15:24:07;7.00;99.90
42913;DHT22;50720;54.324;18.558;2023-03-01T15:26:52;6.70;99.90
42913;DHT22;50720;54.324;18.558;2023-03-01T15:29:27;6.50;99.90
42913;DHT22;50720;54.324;18.558;2023-03-01T15:32:02;6.30;99.90
42913;DHT22;50720;54.324;18.558;2023-03-01T15:34:32;6.20;99.90
42913;DHT22;50720;54.324;18.558;2023-03-01T15:37:04;6.00;99.90
42913;DHT22;50720;54.324;18.558;2023-03-01T15:39:38;5.90;99.90
42913;DHT22;50720;54.324;18.558;2023-03-01T15:42:13;5.70;99.90
42913;DHT22;50720;54.324;18.558;2023-03-01T15:45:09;5.60;99.90
42913;DHT22;50720;54.324;18.558;2023-03-01T15:47:41;5.50;99.90
42913;DHT22;50720;54.324;18.558;2023-03-01T15:50:18;5.40;99.90
42913;DHT22;50720;54.324;18.558;2023-03-01T15:52:49;5.40;99.90
42913;DHT22;50720;54.324;18.558;2023-03-01T15:55:21;5.30;99.90
42913;DHT22;50720;54.324;18.558;2023-03-01T15:57:57;5.30;99.90
42913;DHT22;50720;54.324;18.558;2023-03-01T16:00:28;5.30;99.90
42913;DHT22;50720;54.324;18.558;2023-03-01T16:03:00;5.30;99.90
42913;DHT22;50720;54.324;18.558;2023-03-01T16:05:31;5.20;99.90
42913;DHT22;50720;54.324;18.558;2023-03-01T16:08:02;5.10;99.90
42913;DHT22;50720;54.324;18.558;2023-03-01T16:10:34;5.10;99.90
42913;DHT22;50720;54.324;18.558;2023-03-01T16:13:04;5.10;99.90
42913;DHT22;50720;54.324;18.558;2023-03-01T16:15:34;5.10;99.90
42913;DHT22;50720;54.324;18.558;2023-03-01T16:18:05;5.00;99.90
42913;DHT22;50720;54.324;18.558;2023-03-01T16:20:38;5.00;99.90
42913;DHT22;50720;54.324;18.558;2023-03-01T16:23:10;5.00;99.90
42913;DHT22;50720;54.324;18.558;2023-03-01T16:25:39;4.90;99.90
42913;DHT22;50720;54.324;18.558;2023-03-01T16:28:10;4.80;99.90
42913;DHT22;50720;54.324;18.558;2023-03-01T16:30:39;4.80;99.90
42913;DHT22;50720;54.324;18.558;2023-03-01T16:33:11;4.70;99.90